sensor_id;sensor_type;location;lat;lon;timestamp;pressure;altitude;pressure_sealevel;temperature;humidity
58473;BME280;44775;51.564;5.460;2023-08-12T00:00:10;101487.69;;;19.48;100.00
58473;BME280;44775;51.564;5.460;2023-08-12T00:02:39;101492.06;;;19.49;100.00
58473;BME280;44775;51.564;5.460;2023-08-12T00:05:06;101493.72;;;19.50;100.00
58473;BME280;44775;51.564;5.460;2023-08-12T00:07:35;101489.16;;;19.51;100.00
58473;BME280;44775;51.564;5.460;2023-08-12T00:10:02;101492.06;;;19.49;100.00
58473;BME280;44775;51.564;5.460;2023-08-12T00:12:31;101486.63;;;19.49;100.00
58473;BME280;44775;51.564;5.460;2023-08-12T00:14:56;101489.34;;;19.49;100.00
58473;BME280;44775;51.564;5.460;2023-08-12T00:17:22;101486.44;;;19.51;100.00
58473;BME280;44775;51.564;5.460;2023-08-12T00:19:47;101487.28;;;19.51;100.00
58473;BME280;44775;51.564;5.460;2023-08-12T00:22:12;101483.72;;;19.51;100.00
58473;BME280;44775;51.564;5.460;2023-08-12T00:24:38;101473.72;;;19.51;100.00
58473;BME280;44775;51.564;5.460;2023-08-12T00:27:04;101468.06;;;19.53;100.00
58473;BME280;44775;51.564;5.460;2023-08-12T00:29:29;101469.31;;;19.50;100.00
58473;BME280;44775;51.564;5.460;2023-08-12T00:31:54;101462.47;;;19.48;100.00
58473;BME280;44775;51.564;5.460;2023-08-12T00:34:21;101459.13;;;19.46;100.00
58473;BME280;44775;51.564;5.460;2023-08-12T00:36:46;101448.50;;;19.44;100.00
58473;BME280;44775;51.564;5.460;2023-08-12T00:39:11;101453.06;;;19.44;100.00
58473;BME280;44775;51.564;5.460;2023-08-12T00:41:37;101455.59;;;19.45;100.00
58473;BME280;44775;51.564;5.460;2023-08-12T00:44:03;101446.81;;;19.43;100.00
58473;BME280;44775;51.564;5.460;2023-08-12T00:46:28;101447.25;;;19.40;100.00
58473;BME280;44775;51.564;5.460;2023-08-12T00:48:54;101439.53;;;19.37;100.00
58473;BME280;44775;51.564;5.460;2023-08-12T00:51:19;101444.34;;;19.42;100.00
58473;BME280;44775;51.564;5.460;2023-08-12T00:53:46;101442.22;;;19.44;100.00
58473;BME280;44775;51.564;5.460;2023-08-12T00:56:11;101439.31;;;19.45;100.00
58473;BME280;44775;51.564;5.460;2023-08-12T00:58:37;101438.50;;;19.45;100.00
58473;BME280;44775;51.564;5.460;2023-08-12T01:01:03;101445.56;;;19.46;100.00
58473;BME280;44775;51.564;5.460;2023-08-12T01:03:30;101442.47;;;19.42;100.00
58473;BME280;44775;51.564;5.460;2023-08-12T01:05:55;101438.69;;;19.43;100.00
58473;BME280;44775;51.564;5.460;2023-08-12T01:08:21;101432.66;;;19.41;100.00
58473;BME280;44775;51.564;5.460;2023-08-12T01:10:52;101432.66;;;19.41;100.00
58473;BME280;44775;51.564;5.460;2023-08-12T01:13:30;101421.81;;;19.41;100.00
58473;BME280;44775;51.564;5.460;2023-08-12T01:16:00;101430.97;;;19.40;100.00
58473;BME280;44775;51.564;5.460;2023-08-12T01:18:28;101422.84;;;19.40;100.00
58473;BME280;44775;51.564;5.460;2023-08-12T01:20:54;101419.31;;;19.40;100.00
58473;BME280;44775;51.564;5.460;2023-08-12T01:23:20;101412.44;;;19.37;100.00
58473;BME280;44775;51.564;5.460;2023-08-12T01:25:46;101407.88;;;19.38;100.00
58473;BME280;44775;51.564;5.460;2023-08-12T01:28:11;101404.31;;;19.37;100.00
58473;BME280;44775;51.564;5.460;2023-08-12T01:30:51;101399.94;;;19.36;100.00
58473;BME280;44775;51.564;5.460;2023-08-12T01:33:28;101405.56;;;19.41;100.00
58473;BME280;44775;51.564;5.460;2023-08-12T01:36:22;101399.50;;;19.39;100.00
58473;BME280;44775;51.564;5.460;2023-08-12T01:38:51;101398.88;;;19.37;100.00
58473;BME280;44775;51.564;5.460;2023-08-12T01:41:18;101387.84;;;19.39;100.00
58473;BME280;44775;51.564;5.460;2023-08-12T01:43:46;101386.38;;;19.36;100.00
58473;BME280;44775;51.564;5.460;2023-08-12T01:46:11;101390.31;;;19.40;100.00
58473;BME280;44775;51.564;5.460;2023-08-12T01:48:37;101396.59;;;19.41;100.00
58473;BME280;44775;51.564;5.460;2023-08-12T01:51:02;101393.91;;;19.41;100.00
58473;BME280;44775;51.564;5.460;2023-08-12T01:53:28;101394.31;;;19.44;100.00
58473;BME280;44775;51.564;5.460;2023-08-12T01:55:53;101380.13;;;19.42;100.00
58473;BME280;44775;51.564;5.460;2023-08-12T01:58:19;101380.53;;;19.39;100.00
58473;BME280;44775;51.564;5.460;2023-08-12T02:00:44;101372.22;;;19.34;100.00
58473;BME280;44775;51.564;5.460;2023-08-12T02:03:10;101374.53;;;19.30;100.00
58473;BME280;44775;51.564;5.460;2023-08-12T02:05:35;101377.44;;;19.29;100.00
58473;BME280;44775;51.564;5.460;2023-08-12T02:08:03;101379.34;;;19.28;100.00
58473;BME280;44775;51.564;5.460;2023-08-12T02:10:28;101374.75;;;19.29;100.00
58473;BME280;44775;51.564;5.460;2023-08-12T02:12:54;101381.22;;;19.28;100.00
58473;BME280;44775;51.564;5.460;2023-08-12T02:15:19;101376.81;;;19.27;100.00
58473;BME280;44775;51.564;5.460;2023-08-12T02:17:45;101374.09;;;19.27;100.00
58473;BME280;44775;51.564;5.460;2023-08-12T02:20:10;101370.56;;;19.26;100.00
58473;BME280;44775;51.564;5.460;2023-08-12T02:22:35;101365.38;;;19.25;100.00
58473;BME280;44775;51.564;5.460;2023-08-12T02:25:01;101376.81;;;19.27;100.00
58473;BME280;44775;51.564;5.460;2023-08-12T02:27:26;101369.75;;;19.26;100.00
58473;BME280;44775;51.564;5.460;2023-08-12T02:29:52;101365.97;;;19.27;100.00
58473;BME280;44775;51.564;5.460;2023-08-12T02:32:17;101366.22;;;19.25;100.00
58473;BME280;44775;51.564;5.460;2023-08-12T02:34:42;101361.22;;;19.22;100.00
58473;BME280;44775;51.564;5.460;2023-08-12T02:37:07;101356.84;;;19.21;100.00
58473;BME280;44775;51.564;5.460;2023-08-12T02:39:33;101350.59;;;19.21;100.00
58473;BME280;44775;51.564;5.460;2023-08-12T02:41:58;101344.78;;;19.17;100.00
58473;BME280;44775;51.564;5.460;2023-08-12T02:44:23;101346.44;;;19.18;100.00
58473;BME280;44775;51.564;5.460;2023-08-12T02:46:49;101342.06;;;19.17;100.00
58473;BME280;44775;51.564;5.460;2023-08-12T02:49:14;101339.13;;;19.19;100.00
58473;BME280;44775;51.564;5.460;2023-08-12T02:51:39;101335.78;;;19.17;100.00
58473;BME280;44775;51.564;5.460;2023-08-12T02:54:05;101332.47;;;19.15;100.00
58473;BME280;44775;51.564;5.460;2023-08-12T02:56:30;101321.03;;;19.13;100.00
58473;BME280;44775;51.564;5.460;2023-08-12T02:58:55;101325.81;;;19.17;100.00
58473;BME280;44775;51.564;5.460;2023-08-12T03:01:21;101327.66;;;19.17;100.00
58473;BME280;44775;51.564;5.460;2023-08-12T03:03:47;101331.44;;;19.16;100.00
58473;BME280;44775;51.564;5.460;2023-08-12T03:06:12;101323.31;;;19.16;100.00
58473;BME280;44775;51.564;5.460;2023-08-12T03:08:37;101324.34;;;19.15;100.00
58473;BME280;44775;51.564;5.460;2023-08-12T03:11:03;101314.56;;;19.14;100.00
58473;BME280;44775;51.564;5.460;2023-08-12T03:13:29;101321.84;;;19.13;100.00
58473;BME280;44775;51.564;5.460;2023-08-12T03:15:54;101323.13;;;19.10;100.00
58473;BME280;44775;51.564;5.460;2023-08-12T03:18:20;101319.16;;;19.06;100.00
58473;BME280;44775;51.564;5.460;2023-08-12T03:20:46;101315.63;;;19.06;100.00
58473;BME280;44775;51.564;5.460;2023-08-12T03:23:11;101313.34;;;19.03;100.00
58473;BME280;44775;51.564;5.460;2023-08-12T03:25:36;101306.69;;;18.99;100.00
58473;BME280;44775;51.564;5.460;2023-08-12T03:28:02;101303.16;;;18.98;100.00
58473;BME280;44775;51.564;5.460;2023-08-12T03:30:27;101297.50;;;19.00;100.00
58473;BME280;44775;51.564;5.460;2023-08-12T03:32:52;101292.31;;;18.98;100.00
58473;BME280;44775;51.564;5.460;2023-08-12T03:35:18;101289.59;;;18.98;100.00
58473;BME280;44775;51.564;5.460;2023-08-12T03:37:44;101289.59;;;18.98;100.00
58473;BME280;44775;51.564;5.460;2023-08-12T03:40:09;101296.91;;;18.98;100.00
58473;BME280;44775;51.564;5.460;2023-08-12T03:42:35;101283.78;;;18.95;100.00
58473;BME280;44775;51.564;5.460;2023-08-12T03:45:00;101269.84;;;18.91;100.00
58473;BME280;44775;51.564;5.460;2023-08-12T03:47:25;101285.47;;;18.89;100.00
58473;BME280;44775;51.564;5.460;2023-08-12T03:49:51;101284.00;;;18.86;100.00
58473;BME280;44775;51.564;5.460;2023-08-12T03:52:16;101278.19;;;18.83;100.00
58473;BME280;44775;51.564;5.460;2023-08-12T03:54:42;101278.19;;;18.83;100.00
58473;BME280;44775;51.564;5.460;2023-08-12T03:57:07;101284.06;;;18.80;100.00
58473;BME280;44775;51.564;5.460;2023-08-12T03:59:33;101275.28;;;18.78;100.00
58473;BME280;44775;51.564;5.460;2023-08-12T04:01:58;101273.41;;;18.78;100.00
58473;BME280;44775;51.564;5.460;2023-08-12T04:04:23;101271.97;;;18.76;100.00
58473;BME280;44775;51.564;5.460;2023-08-12T04:06:49;101268.03;;;18.72;100.00
58473;BME280;44775;51.564;5.460;2023-08-12T04:09:17;101270.94;;;18.77;100.00
58473;BME280;44775;51.564;5.460;2023-08-12T04:11:43;101264.44;;;18.71;100.00
58473;BME280;44775;51.564;5.460;2023-08-12T04:14:08;101263.25;;;18.74;100.00
58473;BME280;44775;51.564;5.460;2023-08-12T04:16:33;101267.38;;;18.70;100.00
58473;BME280;44775;51.564;5.460;2023-08-12T04:18:59;101260.94;;;18.64;100.00
58473;BME280;44775;51.564;5.460;2023-08-12T04:21:24;101255.28;;;18.65;100.00
58473;BME280;44775;51.564;5.460;2023-08-12T04:23:49;101244.28;;;18.60;100.00
58473;BME280;44775;51.564;5.460;2023-08-12T04:26:15;101248.47;;;18.63;100.00
58473;BME280;44775;51.564;5.460;2023-08-12T04:28:40;101258.84;;;18.59;100.00
58473;BME280;44775;51.564;5.460;2023-08-12T04:31:06;101257.41;;;18.63;100.00
58473;BME280;44775;51.564;5.460;2023-08-12T04:33:33;101245.13;;;18.54;100.00
58473;BME280;44775;51.564;5.460;2023-08-12T04:35:59;101256.78;;;18.55;100.00
58473;BME280;44775;51.564;5.460;2023-08-12T04:38:25;101254.31;;;18.53;100.00
58473;BME280;44775;51.564;5.460;2023-08-12T04:40:52;101257.84;;;18.54;100.00
58473;BME280;44775;51.564;5.460;2023-08-12T04:43:18;101260.75;;;18.52;100.00
58473;BME280;44775;51.564;5.460;2023-08-12T04:45:46;101252.63;;;18.52;100.00
58473;BME280;44775;51.564;5.460;2023-08-12T04:48:12;101252.00;;;18.50;100.00
58473;BME280;44775;51.564;5.460;2023-08-12T04:50:38;101237.66;;;18.50;100.00
58473;BME280;44775;51.564;5.460;2023-08-12T04:53:04;101234.31;;;18.48;100.00
58473;BME280;44775;51.564;5.460;2023-08-12T04:55:30;101235.56;;;18.45;100.00
58473;BME280;44775;51.564;5.460;2023-08-12T04:57:55;101245.34;;;18.53;100.00
58473;BME280;44775;51.564;5.460;2023-08-12T05:00:22;101236.59;;;18.51;100.00
58473;BME280;44775;51.564;5.460;2023-08-12T05:02:47;101225.34;;;18.54;100.00
58473;BME280;44775;51.564;5.460;2023-08-12T05:05:13;101233.66;;;18.52;100.00
58473;BME280;44775;51.564;5.460;2023-08-12T05:07:38;101226.84;;;18.50;100.00
58473;BME280;44775;51.564;5.460;2023-08-12T05:10:04;101221.22;;;18.45;100.00
58473;BME280;44775;51.564;5.460;2023-08-12T05:12:29;101225.16;;;18.42;100.00
58473;BME280;44775;51.564;5.460;2023-08-12T05:14:54;101221.84;;;18.40;100.00
58473;BME280;44775;51.564;5.460;2023-08-12T05:17:20;101227.25;;;18.40;100.00
58473;BME280;44775;51.564;5.460;2023-08-12T05:19:46;101209.16;;;18.40;100.00
58473;BME280;44775;51.564;5.460;2023-08-12T05:22:11;101210.81;;;18.35;100.00
58473;BME280;44775;51.564;5.460;2023-08-12T05:24:36;101219.16;;;18.33;100.00
58473;BME280;44775;51.564;5.460;2023-08-12T05:27:02;101210.22;;;18.33;100.00
58473;BME280;44775;51.564;5.460;2023-08-12T05:29:28;101222.69;;;18.34;100.00
58473;BME280;44775;51.564;5.460;2023-08-12T05:31:53;101221.03;;;18.33;100.00
58473;BME280;44775;51.564;5.460;2023-08-12T05:34:18;101205.41;;;18.35;100.00
58473;BME280;44775;51.564;5.460;2023-08-12T05:36:44;101196.06;;;18.31;100.00
58473;BME280;44775;51.564;5.460;2023-08-12T05:39:09;101211.03;;;18.33;100.00
58473;BME280;44775;51.564;5.460;2023-08-12T05:41:34;101208.34;;;18.33;100.00
58473;BME280;44775;51.564;5.460;2023-08-12T05:44:00;101210.81;;;18.35;100.00
58473;BME280;44775;51.564;5.460;2023-08-12T05:46:25;101207.50;;;18.33;100.00
58473;BME280;44775;51.564;5.460;2023-08-12T05:48:50;101211.44;;;18.37;100.00
58473;BME280;44775;51.564;5.460;2023-08-12T05:51:16;101208.94;;;18.35;100.00
58473;BME280;44775;51.564;5.460;2023-08-12T05:53:41;101210.81;;;18.41;100.00
58473;BME280;44775;51.564;5.460;2023-08-12T05:56:06;101204.56;;;18.41;100.00
58473;BME280;44775;51.564;5.460;2023-08-12T05:58:32;101209.56;;;18.44;100.00
58473;BME280;44775;51.564;5.460;2023-08-12T06:00:57;101204.97;;;18.45;100.00
58473;BME280;44775;51.564;5.460;2023-08-12T06:03:22;101196.84;;;18.51;100.00
58473;BME280;44775;51.564;5.460;2023-08-12T06:05:48;101197.47;;;18.53;100.00
58473;BME280;44775;51.564;5.460;2023-08-12T06:08:14;101200.19;;;18.53;100.00
58473;BME280;44775;51.564;5.460;2023-08-12T06:10:40;101198.72;;;18.51;100.00
58473;BME280;44775;51.564;5.460;2023-08-12T06:13:05;101204.97;;;18.51;100.00
58473;BME280;44775;51.564;5.460;2023-08-12T06:15:31;101193.72;;;18.54;100.00
58473;BME280;44775;51.564;5.460;2023-08-12T06:17:56;101193.50;;;18.49;100.00
58473;BME280;44775;51.564;5.460;2023-08-12T06:20:23;101192.47;;;18.50;100.00
58473;BME280;44775;51.564;5.460;2023-08-12T06:22:50;101189.94;;;18.55;100.00
58473;BME280;44775;51.564;5.460;2023-08-12T06:25:15;101184.94;;;18.59;100.00
58473;BME280;44775;51.564;5.460;2023-08-12T06:27:41;101179.31;;;18.60;100.00
58473;BME280;44775;51.564;5.460;2023-08-12T06:30:06;101180.78;;;18.63;100.00
58473;BME280;44775;51.564;5.460;2023-08-12T06:32:33;101167.03;;;18.64;100.00
58473;BME280;44775;51.564;5.460;2023-08-12T06:34:59;101173.66;;;18.69;100.00
58473;BME280;44775;51.564;5.460;2023-08-12T06:37:24;101163.25;;;18.65;100.00
58473;BME280;44775;51.564;5.460;2023-08-12T06:39:50;101174.50;;;18.69;100.00
58473;BME280;44775;51.564;5.460;2023-08-12T06:42:15;101170.38;;;18.73;100.00
58473;BME280;44775;51.564;5.460;2023-08-12T06:44:41;101167.66;;;18.73;100.00
58473;BME280;44775;51.564;5.460;2023-08-12T06:47:06;101165.34;;;18.77;100.00
58473;BME280;44775;51.564;5.460;2023-08-12T06:49:32;101161.19;;;18.74;100.00
58473;BME280;44775;51.564;5.460;2023-08-12T06:51:57;101151.59;;;18.78;100.00
58473;BME280;44775;51.564;5.460;2023-08-12T06:54:22;101151.81;;;18.77;100.00
58473;BME280;44775;51.564;5.460;2023-08-12T06:56:48;101152.38;;;18.85;100.00
58473;BME280;44775;51.564;5.460;2023-08-12T06:59:14;101148.59;;;18.93;100.00
58473;BME280;44775;51.564;5.460;2023-08-12T07:01:39;101152.13;;;19.00;100.00
58473;BME280;44775;51.564;5.460;2023-08-12T07:04:05;101152.66;;;19.09;100.00
58473;BME280;44775;51.564;5.460;2023-08-12T07:06:30;101142.63;;;19.16;100.00
58473;BME280;44775;51.564;5.460;2023-08-12T07:08:55;101152.81;;;19.21;100.00
58473;BME280;44775;51.564;5.460;2023-08-12T07:11:21;101154.88;;;19.25;100.00
58473;BME280;44775;51.564;5.460;2023-08-12T07:13:46;101150.13;;;19.21;100.00
58473;BME280;44775;51.564;5.460;2023-08-12T07:16:12;101154.44;;;19.28;100.00
58473;BME280;44775;51.564;5.460;2023-08-12T07:18:37;101140.50;;;19.25;100.00
58473;BME280;44775;51.564;5.460;2023-08-12T07:21:03;101149.22;;;19.27;100.00
58473;BME280;44775;51.564;5.460;2023-08-12T07:23:28;101135.50;;;19.22;100.00
58473;BME280;44775;51.564;5.460;2023-08-12T07:25:54;101144.25;;;19.24;100.00
58473;BME280;44775;51.564;5.460;2023-08-12T07:28:19;101142.38;;;19.24;100.00
58473;BME280;44775;51.564;5.460;2023-08-12T07:30:45;101151.75;;;19.22;100.00
58473;BME280;44775;51.564;5.460;2023-08-12T07:33:10;101148.63;;;19.25;100.00
58473;BME280;44775;51.564;5.460;2023-08-12T07:35:36;101144.41;;;19.29;100.00
58473;BME280;44775;51.564;5.460;2023-08-12T07:38:01;101143.41;;;19.23;100.00
58473;BME280;44775;51.564;5.460;2023-08-12T07:40:26;101143.00;;;19.20;100.00
58473;BME280;44775;51.564;5.460;2023-08-12T07:42:52;101149.69;;;19.24;100.00
58473;BME280;44775;51.564;5.460;2023-08-12T07:45:17;101144.25;;;19.24;100.00
58473;BME280;44775;51.564;5.460;2023-08-12T07:47:43;101139.28;;;19.21;100.00
58473;BME280;44775;51.564;5.460;2023-08-12T07:50:09;101139.88;;;19.23;100.00
58473;BME280;44775;51.564;5.460;2023-08-12T07:52:36;101138.81;;;19.30;100.00
58473;BME280;44775;51.564;5.460;2023-08-12T07:55:02;101133.53;;;19.35;100.00
58473;BME280;44775;51.564;5.460;2023-08-12T07:57:27;101132.03;;;19.40;100.00
58473;BME280;44775;51.564;5.460;2023-08-12T07:59:52;101141.63;;;19.42;100.00
58473;BME280;44775;51.564;5.460;2023-08-12T08:02:18;101141.34;;;19.50;100.00
58473;BME280;44775;51.564;5.460;2023-08-12T08:04:43;101139.09;;;19.47;100.00
58473;BME280;44775;51.564;5.460;2023-08-12T08:07:09;101144.63;;;19.59;100.00
58473;BME280;44775;51.564;5.460;2023-08-12T08:09:34;101149.81;;;19.61;100.00
58473;BME280;44775;51.564;5.460;2023-08-12T08:12:00;101149.38;;;19.64;100.00
58473;BME280;44775;51.564;5.460;2023-08-12T08:14:26;101140.22;;;19.65;100.00
58473;BME280;44775;51.564;5.460;2023-08-12T08:16:52;101164.66;;;19.83;100.00
58473;BME280;44775;51.564;5.460;2023-08-12T08:19:18;101163.84;;;19.83;100.00
58473;BME280;44775;51.564;5.460;2023-08-12T08:21:43;101167.75;;;19.87;100.00
58473;BME280;44775;51.564;5.460;2023-08-12T08:24:09;101173.00;;;19.88;100.00
58473;BME280;44775;51.564;5.460;2023-08-12T08:26:36;101174.78;;;19.94;100.00
58473;BME280;44775;51.564;5.460;2023-08-12T08:29:01;101172.53;;;19.91;100.00
58473;BME280;44775;51.564;5.460;2023-08-12T08:31:27;101167.56;;;19.88;100.00
58473;BME280;44775;51.564;5.460;2023-08-12T08:33:52;101178.50;;;20.00;100.00
58473;BME280;44775;51.564;5.460;2023-08-12T08:36:17;101182.59;;;20.09;100.00
58473;BME280;44775;51.564;5.460;2023-08-12T08:38:43;101177.75;;;20.11;100.00
58473;BME280;44775;51.564;5.460;2023-08-12T08:41:08;101187.06;;;20.22;100.00
58473;BME280;44775;51.564;5.460;2023-08-12T08:43:35;101195.53;;;20.32;100.00
58473;BME280;44775;51.564;5.460;2023-08-12T08:46:01;101187.75;;;20.36;100.00
58473;BME280;44775;51.564;5.460;2023-08-12T08:48:27;101190.78;;;20.46;100.00
58473;BME280;44775;51.564;5.460;2023-08-12T08:50:54;101202.75;;;20.38;100.00
58473;BME280;44775;51.564;5.460;2023-08-12T08:53:20;101196.34;;;20.33;100.00
58473;BME280;44775;51.564;5.460;2023-08-12T08:55:46;101195.28;;;20.34;100.00
58473;BME280;44775;51.564;5.460;2023-08-12T08:58:12;101195.66;;;20.37;100.00
58473;BME280;44775;51.564;5.460;2023-08-12T09:00:38;101210.88;;;20.38;100.00
58473;BME280;44775;51.564;5.460;2023-08-12T09:03:04;101196.59;;;20.49;100.00
58473;BME280;44775;51.564;5.460;2023-08-12T09:05:30;101199.91;;;20.88;100.00
58473;BME280;44775;51.564;5.460;2023-08-12T09:07:57;101199.47;;;21.21;100.00
58473;BME280;44775;51.564;5.460;2023-08-12T09:10:26;101199.00;;;21.55;100.00
58473;BME280;44775;51.564;5.460;2023-08-12T09:12:53;101214.41;;;21.61;100.00
58473;BME280;44775;51.564;5.460;2023-08-12T09:15:19;101214.00;;;21.45;100.00
58473;BME280;44775;51.564;5.460;2023-08-12T09:17:45;101217.06;;;21.19;100.00
58473;BME280;44775;51.564;5.460;2023-08-12T09:20:10;101223.38;;;20.83;100.00
58473;BME280;44775;51.564;5.460;2023-08-12T09:22:42;101219.94;;;20.75;100.00
58473;BME280;44775;51.564;5.460;2023-08-12T09:25:09;101234.03;;;20.66;100.00
58473;BME280;44775;51.564;5.460;2023-08-12T09:27:36;101244.13;;;20.59;100.00
58473;BME280;44775;51.564;5.460;2023-08-12T09:30:03;101249.47;;;20.65;100.00
58473;BME280;44775;51.564;5.460;2023-08-12T09:32:29;101245.78;;;20.60;100.00
58473;BME280;44775;51.564;5.460;2023-08-12T09:34:54;101245.19;;;20.76;100.00
58473;BME280;44775;51.564;5.460;2023-08-12T09:37:22;101241.56;;;20.82;100.00
58473;BME280;44775;51.564;5.460;2023-08-12T09:39:49;101242.78;;;20.86;100.00
58473;BME280;44775;51.564;5.460;2023-08-12T09:42:16;101245.50;;;20.86;100.00
58473;BME280;44775;51.564;5.460;2023-08-12T09:44:42;101250.09;;;20.86;100.00
58473;BME280;44775;51.564;5.460;2023-08-12T09:47:07;101238.84;;;20.82;100.00
58473;BME280;44775;51.564;5.460;2023-08-12T09:49:38;101250.38;;;20.78;100.00
58473;BME280;44775;51.564;5.460;2023-08-12T09:52:04;101242.94;;;20.73;100.00
58473;BME280;44775;51.564;5.460;2023-08-12T09:54:33;101260.13;;;20.85;100.00
58473;BME280;44775;51.564;5.460;2023-08-12T09:57:01;101260.31;;;21.02;100.00
58473;BME280;44775;51.564;5.460;2023-08-12T09:59:34;101257.97;;;21.24;100.00
58473;BME280;44775;51.564;5.460;2023-08-12T10:02:01;101263.53;;;21.29;100.00
58473;BME280;44775;51.564;5.460;2023-08-12T10:04:40;101266.19;;;21.36;100.00
58473;BME280;44775;51.564;5.460;2023-08-12T10:07:07;101265.81;;;21.32;100.00
58473;BME280;44775;51.564;5.460;2023-08-12T10:09:36;101274.13;;;21.37;100.00
58473;BME280;44775;51.564;5.460;2023-08-12T10:12:01;101278.28;;;21.70;100.00
58473;BME280;44775;51.564;5.460;2023-08-12T10:14:28;101273.13;;;21.80;100.00
58473;BME280;44775;51.564;5.460;2023-08-12T10:16:54;101270.91;;;21.59;100.00
58473;BME280;44775;51.564;5.460;2023-08-12T10:19:20;101278.56;;;21.80;100.00
58473;BME280;44775;51.564;5.460;2023-08-12T10:21:48;101277.00;;;22.26;100.00
58473;BME280;44775;51.564;5.460;2023-08-12T10:24:16;101277.94;;;22.44;100.00
58473;BME280;44775;51.564;5.460;2023-08-12T10:26:42;101280.06;;;22.53;100.00
58473;BME280;44775;51.564;5.460;2023-08-12T10:29:07;101282.03;;;23.05;100.00
58473;BME280;44775;51.564;5.460;2023-08-12T10:31:33;101285.06;;;23.49;100.00
58473;BME280;44775;51.564;5.460;2023-08-12T10:33:58;101273.88;;;23.62;100.00
58473;BME280;44775;51.564;5.460;2023-08-12T10:36:26;101280.56;;;23.83;100.00
58473;BME280;44775;51.564;5.460;2023-08-12T10:38:52;101273.13;;;24.12;100.00
58473;BME280;44775;51.564;5.460;2023-08-12T10:43:59;101281.97;;;24.92;100.00
58473;BME280;44775;51.564;5.460;2023-08-12T10:46:31;101297.25;;;25.32;93.89
58473;BME280;44775;51.564;5.460;2023-08-12T10:49:10;101292.34;;;25.61;98.14
58473;BME280;44775;51.564;5.460;2023-08-12T10:59:49;101284.25;;;25.44;93.91
58473;BME280;44775;51.564;5.460;2023-08-12T11:02:27;101293.19;;;25.12;87.98
58473;BME280;44775;51.564;5.460;2023-08-12T11:05:01;101288.44;;;24.86;89.54
58473;BME280;44775;51.564;5.460;2023-08-12T11:07:34;101297.31;;;24.76;91.27
58473;BME280;44775;51.564;5.460;2023-08-12T11:10:18;101298.88;;;24.89;89.18
58473;BME280;44775;51.564;5.460;2023-08-12T11:15:16;101298.59;;;24.68;85.08
58473;BME280;44775;51.564;5.460;2023-08-12T11:17:42;101292.41;;;24.56;80.51
58473;BME280;44775;51.564;5.460;2023-08-12T11:20:09;101280.97;;;24.59;79.97
58473;BME280;44775;51.564;5.460;2023-08-12T11:22:43;101299.13;;;25.09;82.61
58473;BME280;44775;51.564;5.460;2023-08-12T11:25:11;101301.25;;;25.24;70.35
58473;BME280;44775;51.564;5.460;2023-08-12T11:27:41;101293.31;;;25.23;75.25
58473;BME280;44775;51.564;5.460;2023-08-12T11:30:09;101287.97;;;24.94;80.08
58473;BME280;44775;51.564;5.460;2023-08-12T11:32:36;101281.47;;;24.95;69.51
58473;BME280;44775;51.564;5.460;2023-08-12T11:35:03;101288.97;;;25.27;69.56
58473;BME280;44775;51.564;5.460;2023-08-12T11:37:30;101298.72;;;25.66;69.92
58473;BME280;44775;51.564;5.460;2023-08-12T11:39:56;101287.03;;;26.03;73.12
58473;BME280;44775;51.564;5.460;2023-08-12T11:42:21;101283.00;;;26.48;65.98
58473;BME280;44775;51.564;5.460;2023-08-12T11:44:47;101299.31;;;26.70;65.43
58473;BME280;44775;51.564;5.460;2023-08-12T11:47:12;101298.16;;;26.61;71.08
58473;BME280;44775;51.564;5.460;2023-08-12T11:49:37;101286.16;;;26.30;71.34
58473;BME280;44775;51.564;5.460;2023-08-12T11:52:03;101296.47;;;25.85;69.58
58473;BME280;44775;51.564;5.460;2023-08-12T11:54:29;101296.28;;;25.43;70.46
58473;BME280;44775;51.564;5.460;2023-08-12T11:56:55;101292.72;;;25.20;71.70
58473;BME280;44775;51.564;5.460;2023-08-12T11:59:22;101300.88;;;25.15;71.92
58473;BME280;44775;51.564;5.460;2023-08-12T12:01:51;101301.75;;;24.99;72.95
58473;BME280;44775;51.564;5.460;2023-08-12T12:04:17;101303.69;;;25.04;70.79
58473;BME280;44775;51.564;5.460;2023-08-12T12:06:46;101305.56;;;25.20;76.61
58473;BME280;44775;51.564;5.460;2023-08-12T12:09:12;101302.91;;;25.25;74.84
58473;BME280;44775;51.564;5.460;2023-08-12T12:11:40;101302.13;;;25.08;73.05
58473;BME280;44775;51.564;5.460;2023-08-12T12:14:07;101293.88;;;25.25;73.93
58473;BME280;44775;51.564;5.460;2023-08-12T12:19:29;101298.69;;;25.17;77.13
58473;BME280;44775;51.564;5.460;2023-08-12T12:21:54;101297.75;;;25.29;75.00
58473;BME280;44775;51.564;5.460;2023-08-12T12:24:20;101301.69;;;25.38;74.80
58473;BME280;44775;51.564;5.460;2023-08-12T12:26:46;101308.66;;;25.51;71.51
58473;BME280;44775;51.564;5.460;2023-08-12T12:29:12;101305.81;;;25.67;72.07
58473;BME280;44775;51.564;5.460;2023-08-12T12:31:39;101299.03;;;25.97;72.18
58473;BME280;44775;51.564;5.460;2023-08-12T12:34:05;101304.28;;;26.36;71.10
58473;BME280;44775;51.564;5.460;2023-08-12T12:36:34;101299.72;;;26.94;67.82
58473;BME280;44775;51.564;5.460;2023-08-12T12:39:00;101307.31;;;27.35;65.38
58473;BME280;44775;51.564;5.460;2023-08-12T12:41:25;101313.41;;;27.62;64.53
58473;BME280;44775;51.564;5.460;2023-08-12T12:43:51;101301.13;;;27.02;58.97
58473;BME280;44775;51.564;5.460;2023-08-12T12:46:16;101308.84;;;27.10;63.22
58473;BME280;44775;51.564;5.460;2023-08-12T12:48:45;101313.09;;;27.38;60.42
58473;BME280;44775;51.564;5.460;2023-08-12T12:51:11;101312.56;;;27.51;57.80